Main page
METAR-TAF:

Airports :

Bucharest, Romania

Henri Coandă International Airport

latitude: 44-33N, longitude: 026-06E, elevation: 95 m

Current weather observation

The report was made 20 minutes ago, at 01:30 UTC
Wind 2 kt from the West
Temperature 10°C
Humidity 93%
Pressure 1024 hPa
Visibility: 6000 m
Broken clouds at a height of 4500 ft

METAR: LROP 270130Z 28002KT 6000 BKN045 10/09 Q1024 R88/19//95 TEMPO 5000 BR

Time: 04:50 (01:50 UTC)

Forecast

The report was made 2 hours and 50 minutes ago, at 23:00 UTC
Forecast valid from 27 at 00 UTC to 27 at 24 UTC
Wind 4 kt from variable directions
Visibility 10 km or more
no clouds below 1500 m and no cumulonimbus
Temporary
from 27 at 01 UTC to 27 at 05 UTC
Visibility: 5000 m
mist

TAF: LROP 262300Z 2700/2724 VRB04KT CAVOK TEMPO 2701/2705 5000 BR

METAR-TAF

Weather observations and forecasts of more than 4000 airports (METAR and TAF reports).

The available stations are represented by yellow and red dots on the map.

Hover mouse over dot to see the name of the station.

Then click to see weather observations and forecasts.

To change the map : click on the green buttons with a black cross to zoom in, on the green button with a dash to zoom out, or on the green arrows for adjacent maps.


METAR-TAF: